METAR Data
IDs: Format: Raw Decoded Include TAF

Data at: 1018 UTC 28 Sep 2021

UKDR 281000Z 02005MPS 330V080 9999 SCT033 14/05 Q1022 R36/09//70 NOSIG